Livermore Municipal Airport

KLVK · Californie, États-Unis

METAR anciennes KLVK · Livermore Municipal Airport

Tu vois ci-dessous les METAR des derniers jours. Sélectionne une année pour parcourir les METAR plus anciens, à partir de l'année 2007.

15 juin 2024

Temps Code Temps Temp. Vue Base cloud Vent METAR/SPECI
17:53
V
24 °C 10 mi - 290° 290° 14 kt METAR KLVK 160053Z 29014KT 10SM CLR 24/06 A2989 RMK AO2 SLP119 T02440061
16:53
V
27 °C 10 mi - 280° 280° 13 kt METAR KLVK 152353Z 28013KT 10SM CLR 27/09 A2989 RMK AO2 SLP118 T02670094 10289 20211 56018
15:53
V
28 °C 10 mi - 270° 270° 8 kt METAR KLVK 152253Z 27008KT 240V300 10SM CLR 28/07 A2990 RMK AO2 SLP120 T02830072
14:53
V
28 °C 10 mi - 250° 250° 7 kt METAR KLVK 152153Z 25007KT 10SM CLR 28/07 A2992 RMK AO2 SLP128 T02780072
13:53
V
27 °C 10 mi - 250° 250° 10 kt METAR KLVK 152053Z 25010KT 10SM CLR 27/08 A2995 RMK AO2 SLP136 T02720078 58018
12:53
V
26 °C 10 mi - 210° 210° 7 kt METAR KLVK 151953Z 21007KT 10SM CLR 26/08 A2997 RMK AO2 SLP144 T02560078
11:53
V
24 °C 10 mi - 280° 280° 6 kt METAR KLVK 151853Z 28006KT 10SM CLR 24/08 A2999 RMK AO2 SLP150 T02390078
10:53
V
21 °C 10 mi - 240° 240° 7 kt METAR KLVK 151753Z 24007KT 10SM CLR 21/07 A3000 RMK AO2 SLP156 T02110072 10211 20111 58010
09:53
V
18 °C 10 mi - 240° 240° 4 kt METAR KLVK 151653Z 24004KT 10SM CLR 18/08 A3001 RMK AO2 SLP159 T01830078
08:53
V
17 °C 10 mi - 220° 220° 4 kt METAR KLVK 151553Z 22004KT 10SM CLR 17/08 A3002 RMK AO2 SLP164 T01670083
07:53
V
14 °C 10 mi - 360° 360° 0 kt METAR KLVK 151453Z 00000KT 10SM CLR 14/09 A3003 RMK AO2 SLP166 T01440089 53006
06:53
V
12 °C 9 mi - 310° 310° 6 kt METAR KLVK 151353Z AUTO 31006KT 9SM CLR 12/09 A3002 RMK AO2 SLP161 T01220089
05:53
V
11 °C 9 mi - 350° 350° 4 kt METAR KLVK 151253Z AUTO 35004KT 9SM CLR 11/08 A3001 RMK AO2 SLP160 T01110083
04:53
V
12 °C 10 mi - 230° 230° 10 kt METAR KLVK 151153Z AUTO 23010KT 10SM CLR 12/09 A3001 RMK AO2 SLP159 T01170089 10150 20117 58004
03:53
V
12 °C 10 mi - 220° 220° 4 kt METAR KLVK 151053Z AUTO 22004KT 10SM CLR 12/09 A3002 RMK AO2 SLP160 T01170089
02:53
V
12 °C 10 mi - 200° 200° 8 kt METAR KLVK 150953Z AUTO 20008KT 10SM CLR 12/08 A3002 RMK AO2 SLP163 T01220083
01:53
V
12 °C 10 mi - 330° 330° 3 kt METAR KLVK 150853Z AUTO 33003KT 10SM CLR 12/08 A3002 RMK AO2 SLP163 T01220083 55003
00:53
V
13 °C 10 mi - 280° 280° 8 kt METAR KLVK 150753Z AUTO 28008KT 10SM CLR 13/08 A3001 RMK AO2 SLP159 T01330078 403000106

14 juin 2024

Temps Code Temps Temp. Vue Base cloud Vent METAR/SPECI
23:53
V
15 °C 10 mi - 240° 240° 15 - 22 kt METAR KLVK 150653Z AUTO 24015G22KT 10SM CLR 15/08 A3003 RMK AO2 SLP164 T01500078
22:53
V
14 °C 10 mi - 240° 240° 7 kt METAR KLVK 150553Z AUTO 24007KT 10SM CLR 14/08 A3003 RMK AO2 SLP167 T01440078 10289 20144 52012
21:53
V
16 °C 10 mi - 240° 240° 11 kt METAR KLVK 150453Z 24011KT 10SM CLR 16/07 A3002 RMK AO2 SLP163 T01610072
20:53
V
17 °C 10 mi - 260° 260° 10 kt METAR KLVK 150353Z 26010KT 10SM CLR 17/06 A3001 RMK AO2 SLP159 T01720061
19:53
V
19 °C 10 mi - 200° 200° 11 kt METAR KLVK 150253Z 20011KT 10SM CLR 19/07 A3000 RMK AO2 SLP155 T01890067 53009
18:53
V
23 °C 10 mi - 230° 230° 10 kt METAR KLVK 150153Z 23010KT 10SM CLR 23/07 A2999 RMK AO2 SLP150 T02280067
17:53
V
26 °C 10 mi - 250° 250° 12 kt METAR KLVK 150053Z 25012KT 10SM CLR 26/05 A2998 RMK AO2 SLP148 T02560050
16:53
V
29 °C 10 mi - 280° 280° 15 kt METAR KLVK 142353Z 28015KT 10SM CLR 29/01 A2997 RMK AO2 SLP145 T02890006 10300 20228 55009
15:53
V
29 °C 10 mi - 260° 260° 15 kt METAR KLVK 142253Z 26015KT 10SM CLR 29/03 A2997 RMK AO2 SLP144 T02940033
14:53
V
30 °C 10 mi - 270° 270° 10 kt METAR KLVK 142153Z 27010KT 10SM CLR 30/06 A2999 RMK AO2 SLP150 T03000061
13:53
V
28 °C 10 mi - 280° 280° 11 kt METAR KLVK 142053Z 28011KT 10SM CLR 28/05 A3000 RMK AO2 SLP154 T02830050 58005
12:53
V
27 °C 10 mi - 290° 290° 10 kt METAR KLVK 141953Z 29010KT 10SM CLR 27/05 A3000 RMK AO2 SLP156 T02720050
11:53
V
26 °C 10 mi - 280° 280° 8 kt METAR KLVK 141853Z 28008KT 10SM CLR 26/08 A3001 RMK AO2 SLP160 T02560078
10:53
V
23 °C 10 mi - 260° 260° 7 kt METAR KLVK 141753Z 26007KT 10SM CLR 23/09 A3001 RMK AO2 SLP160 T02280094 10228 20106 58000
09:53
V
20 °C 10 mi - 290° 290° 6 kt METAR KLVK 141653Z 29006KT 10SM CLR 20/10 A3002 RMK AO2 SLP162 T02000100
08:53
V
16 °C 10 mi - 280° 280° 5 kt METAR KLVK 141553Z 28005KT 10SM CLR 16/10 A3002 RMK AO2 SLP163 T01610100
07:53
V
14 °C 8 mi - 300° 300° 3 kt METAR KLVK 141453Z 30003KT 8SM CLR 14/11 A3001 RMK AO2 SLP161 T01440106 50006
06:53
V
13 °C 7 mi - 360° 360° 0 kt METAR KLVK 141353Z 00000KT 7SM CLR 13/10 A3002 RMK AO2 SLP162 T01280100
05:53
V
11 °C 7 mi - 260° 260° 3 kt METAR KLVK 141253Z AUTO 26003KT 7SM CLR 11/09 A3001 RMK AO2 SLP159 T01110089
04:53
V
11 °C 7 mi - 360° 360° 0 kt METAR KLVK 141153Z AUTO 00000KT 7SM CLR 11/09 A3000 RMK AO2 SLP154 60000 T01110089 10122 20106 55002
03:53
V
11 °C 7 mi - 290° 290° 6 kt METAR KLVK 141053Z AUTO 29006KT 7SM CLR 11/09 A2999 RMK AO2 SLP154 T01110089
02:53
V
12 °C 7 mi - 290° 290° 7 kt METAR KLVK 140953Z AUTO 29007KT 7SM CLR 12/09 A3000 RMK AO2 SLP156 T01170089
01:53
V
12 °C 8 mi - 290° 290° 4 kt METAR KLVK 140853Z AUTO 29004KT 8SM CLR 12/09 A3000 RMK AO2 SLP156 60000 T01170089 58007
00:53
V
12 °C 8 mi - 300° 300° 10 kt METAR KLVK 140753Z AUTO 30010KT 8SM CLR 12/09 A3001 RMK AO2 SLP160 T01170094 402500117

13 juin 2024

Temps Code Temps Temp. Vue Base cloud Vent METAR/SPECI
23:53
V
12 °C 8 mi - 300° 300° 7 kt METAR KLVK 140653Z AUTO 30007KT 8SM CLR 12/09 A3002 RMK AO2 RAE15B38E49 SLP163 P0000 T01170089
22:53
V
12 °C 9 mi - 290° 290° 10 kt METAR KLVK 140553Z AUTO 29010KT 9SM -RA CLR 12/09 A3002 RMK AO2 RAE09B26 SLP163 P0000 60000 T01220089 10228 20122 51017
21:53
V
12 °C 9 mi - 290° 290° 11 - 23 kt METAR KLVK 140453Z 29011G23KT 9SM -RA CLR 12/09 A3001 RMK AO2 RAB03 SLP159 P0000 T01220089
20:53
V
13 °C 9 mi - 290° 290° 11 kt METAR KLVK 140353Z 29011KT 9SM CLR 13/08 A2999 RMK AO2 RAB03E23 SLP153 P0000 T01330083
19:53
V
16 °C 9 mi - 300° 300° 16 - 22 kt METAR KLVK 140253Z 30016G22KT 9SM CLR 16/09 A2997 RMK AO2 RAE06 SLP146 P0000 60000 T01560089 53016
18:53
V
18 °C 10 mi - 290° 290° 18 - 23 kt METAR KLVK 140153Z 29018G23KT 10SM -RA CLR 18/09 A2995 RMK AO2 RAB44 SLP139 P0000 T01830094
17:53
V
21 °C 10 mi - 290° 290° 15 kt METAR KLVK 140053Z 29015KT 10SM CLR 21/09 A2993 RMK AO2 RAB2354E04B29E38 SLP133 P0000 T02060094
16:53
V
23 °C 10 mi - 280° 280° 17 kt METAR KLVK 132353Z 28017KT 10SM CLR 23/10 A2993 RMK AO2 RAE31 SLP130 P0000 60000 T02280100 10250 20211 53000
15:53
V
23 °C 10 mi - 300° 300° 16 kt METAR KLVK 132253Z COR 30016KT 10SM CLR 23/10 A2992 RMK AO2 RAB19 SLP129 P0000 T02330100
14:53
V
25 °C 10 mi - 310° 310° 11 - 20 kt METAR KLVK 132153Z 31011G20KT 10SM CLR 25/11 A2992 RMK AO2 RAE2056 SLP129 P0000 T02500111
13:53
V
24 °C 10 mi - 290° 290° 15 - 22 kt METAR KLVK 132053Z 29015G22KT 10SM -RA CLR 24/11 A2993 RMK AO2 RAB35 SLP129 P0000 60000 T02440111 50001
12:53
V
24 °C 10 mi - 300° 300° 10 kt METAR KLVK 131953Z 30010KT 10SM CLR 24/11 A2993 RMK AO2 SLP130 T02440111
11:53
V
23 °C 10 mi - 300° 300° 10 kt METAR KLVK 131853Z 30010KT 10SM CLR 23/11 A2992 RMK AO2 SLP129 T02280111
10:53
V
22 °C 10 mi - 300° 300° 9 kt METAR KLVK 131753Z 30009KT 10SM CLR 22/12 A2992 RMK AO2 SLP129 T02170117 10217 20128 51004
09:53
V
19 °C 10 mi - 290° 290° 8 kt METAR KLVK 131653Z 29008KT 10SM CLR 19/12 A2992 RMK AO2 SLP128 T01940122
07:53
V
16 °C 9 mi - 300° 300° 5 kt METAR KLVK 131453Z 30005KT 9SM CLR 16/12 A2991 RMK AO2 SLP124 T01560117 52014
06:53
V
14 °C 8 mi - 330° 330° 4 kt METAR KLVK 131353Z 33004KT 8SM CLR 14/11 A2990 RMK AO2 SLP120 T01390111
05:53
V
13 °C 9 mi - 320° 320° 5 kt METAR KLVK 131253Z AUTO 32005KT 9SM CLR 13/11 A2988 RMK AO2 SLP113 T01330106
04:53
V
13 °C 9 mi - 310° 310° 5 kt METAR KLVK 131153Z AUTO 31005KT 9SM CLR 13/11 A2987 RMK AO2 SLP109 T01330111 10156 20128 55000
03:53
V
13 °C 9 mi - 310° 310° 7 kt METAR KLVK 131053Z AUTO 31007KT 9SM CLR 13/11 A2986 RMK AO2 SLP106 T01330111
02:53
V
14 °C 9 mi - 310° 310° 5 kt METAR KLVK 130953Z AUTO 31005KT 9SM CLR 14/11 A2986 RMK AO2 SLP107 T01390106
01:53
V
14 °C 9 mi - 310° 310° 7 kt METAR KLVK 130853Z AUTO 31007KT 9SM CLR 14/11 A2987 RMK AO2 SLP109 T01390106 58002
00:53
V
15 °C 9 mi - 320° 320° 7 kt METAR KLVK 130753Z AUTO 32007KT 9SM CLR 15/11 A2987 RMK AO2 SLP111 T01500111 403000150

12 juin 2024

Temps Code Temps Temp. Vue Base cloud Vent METAR/SPECI
23:53
V
16 °C 10 mi - 320° 320° 7 kt METAR KLVK 130653Z AUTO 32007KT 10SM CLR 16/11 A2987 RMK AO2 SLP111 T01560106
22:53
V
16 °C 9 mi - 310° 310° 10 kt METAR KLVK 130553Z AUTO 31010KT 9SM CLR 16/11 A2987 RMK AO2 SLP112 60000 T01560106 10272 20156 53012
Signaler les modifications